sensor_id;sensor_type;location;lat;lon;timestamp;temperature;humidity
28947;DHT22;16052;50.930;5.326;2022-11-20T00:01:49;6.00;99.90
28947;DHT22;16052;50.930;5.326;2022-11-20T00:04:15;5.90;99.90
28947;DHT22;16052;50.930;5.326;2022-11-20T00:06:40;5.90;99.90
28947;DHT22;16052;50.930;5.326;2022-11-20T00:09:06;6.00;99.90
28947;DHT22;16052;50.930;5.326;2022-11-20T00:11:32;6.10;99.90
28947;DHT22;16052;50.930;5.326;2022-11-20T00:14:00;6.10;99.90
28947;DHT22;16052;50.930;5.326;2022-11-20T00:16:28;6.30;99.90
28947;DHT22;16052;50.930;5.326;2022-11-20T00:18:54;6.30;99.90
28947;DHT22;16052;50.930;5.326;2022-11-20T00:21:25;6.20;99.90
28947;DHT22;16052;50.930;5.326;2022-11-20T00:23:52;6.10;99.90
28947;DHT22;16052;50.930;5.326;2022-11-20T00:26:20;6.30;99.90
28947;DHT22;16052;50.930;5.326;2022-11-20T00:28:51;6.30;99.90
28947;DHT22;16052;50.930;5.326;2022-11-20T00:31:17;6.30;99.90
28947;DHT22;16052;50.930;5.326;2022-11-20T00:33:44;6.30;99.90
28947;DHT22;16052;50.930;5.326;2022-11-20T00:36:13;6.30;99.90
28947;DHT22;16052;50.930;5.326;2022-11-20T00:38:39;6.30;99.90
28947;DHT22;16052;50.930;5.326;2022-11-20T00:41:07;6.20;99.90
28947;DHT22;16052;50.930;5.326;2022-11-20T00:43:33;6.40;99.90
28947;DHT22;16052;50.930;5.326;2022-11-20T00:46:01;6.30;99.90
28947;DHT22;16052;50.930;5.326;2022-11-20T00:48:26;6.40;99.90
28947;DHT22;16052;50.930;5.326;2022-11-20T00:50:53;6.40;99.90
28947;DHT22;16052;50.930;5.326;2022-11-20T00:53:19;6.30;99.90
28947;DHT22;16052;50.930;5.326;2022-11-20T00:56:05;6.10;99.90
28947;DHT22;16052;50.930;5.326;2022-11-20T00:58:39;5.60;99.90
28947;DHT22;16052;50.930;5.326;2022-11-20T01:01:09;5.50;99.90
28947;DHT22;16052;50.930;5.326;2022-11-20T01:03:41;5.50;99.90
28947;DHT22;16052;50.930;5.326;2022-11-20T01:06:16;6.00;99.90
28947;DHT22;16052;50.930;5.326;2022-11-20T01:08:43;6.00;99.90
28947;DHT22;16052;50.930;5.326;2022-11-20T01:11:15;6.00;99.90
28947;DHT22;16052;50.930;5.326;2022-11-20T01:13:41;5.90;99.90
28947;DHT22;16052;50.930;5.326;2022-11-20T01:16:11;6.00;99.90
28947;DHT22;16052;50.930;5.326;2022-11-20T01:18:38;6.00;99.90
28947;DHT22;16052;50.930;5.326;2022-11-20T01:21:07;6.10;99.90
28947;DHT22;16052;50.930;5.326;2022-11-20T01:23:35;6.00;99.90
28947;DHT22;16052;50.930;5.326;2022-11-20T01:26:03;6.10;99.90
28947;DHT22;16052;50.930;5.326;2022-11-20T01:28:29;5.90;99.90
28947;DHT22;16052;50.930;5.326;2022-11-20T01:30:55;5.70;99.90
28947;DHT22;16052;50.930;5.326;2022-11-20T01:33:21;5.40;99.90
28947;DHT22;16052;50.930;5.326;2022-11-20T01:35:46;5.40;99.90
28947;DHT22;16052;50.930;5.326;2022-11-20T01:38:12;5.30;99.90
28947;DHT22;16052;50.930;5.326;2022-11-20T01:40:38;5.20;99.90
28947;DHT22;16052;50.930;5.326;2022-11-20T01:43:17;5.00;99.90
28947;DHT22;16052;50.930;5.326;2022-11-20T01:48:33;5.10;99.90
28947;DHT22;16052;50.930;5.326;2022-11-20T01:51:00;5.20;99.90
28947;DHT22;16052;50.930;5.326;2022-11-20T01:53:30;5.40;99.90
28947;DHT22;16052;50.930;5.326;2022-11-20T01:55:58;5.60;99.90
28947;DHT22;16052;50.930;5.326;2022-11-20T01:58:33;5.70;99.90
28947;DHT22;16052;50.930;5.326;2022-11-20T02:01:03;5.70;99.90
28947;DHT22;16052;50.930;5.326;2022-11-20T02:03:29;5.80;99.90
28947;DHT22;16052;50.930;5.326;2022-11-20T02:08:28;6.10;99.90
28947;DHT22;16052;50.930;5.326;2022-11-20T02:10:54;5.80;99.90
28947;DHT22;16052;50.930;5.326;2022-11-20T02:13:19;5.70;99.90
28947;DHT22;16052;50.930;5.326;2022-11-20T02:16:04;5.80;99.90
28947;DHT22;16052;50.930;5.326;2022-11-20T02:18:32;5.90;99.90
28947;DHT22;16052;50.930;5.326;2022-11-20T02:21:04;5.90;99.90
28947;DHT22;16052;50.930;5.326;2022-11-20T02:26:16;6.10;99.90
28947;DHT22;16052;50.930;5.326;2022-11-20T02:28:42;6.20;99.90
28947;DHT22;16052;50.930;5.326;2022-11-20T02:31:07;6.60;99.90
28947;DHT22;16052;50.930;5.326;2022-11-20T02:33:33;6.70;98.40
28947;DHT22;16052;50.930;5.326;2022-11-20T02:35:59;6.60;98.40
28947;DHT22;16052;50.930;5.326;2022-11-20T02:38:24;6.40;99.90
28947;DHT22;16052;50.930;5.326;2022-11-20T02:40:50;6.40;99.90
28947;DHT22;16052;50.930;5.326;2022-11-20T02:43:16;6.40;99.90
28947;DHT22;16052;50.930;5.326;2022-11-20T02:45:42;6.40;99.90
28947;DHT22;16052;50.930;5.326;2022-11-20T02:48:08;6.20;99.90
28947;DHT22;16052;50.930;5.326;2022-11-20T02:50:37;6.10;99.90
28947;DHT22;16052;50.930;5.326;2022-11-20T02:53:03;6.10;99.90
28947;DHT22;16052;50.930;5.326;2022-11-20T02:55:28;5.90;99.90
28947;DHT22;16052;50.930;5.326;2022-11-20T02:57:54;5.80;99.90
28947;DHT22;16052;50.930;5.326;2022-11-20T03:00:20;5.60;99.90
28947;DHT22;16052;50.930;5.326;2022-11-20T03:02:45;5.60;99.90
28947;DHT22;16052;50.930;5.326;2022-11-20T03:05:11;5.50;99.90
28947;DHT22;16052;50.930;5.326;2022-11-20T03:07:36;5.70;99.90
28947;DHT22;16052;50.930;5.326;2022-11-20T03:10:03;5.70;99.90
28947;DHT22;16052;50.930;5.326;2022-11-20T03:12:30;5.80;99.90
28947;DHT22;16052;50.930;5.326;2022-11-20T03:14:57;5.70;99.90
28947;DHT22;16052;50.930;5.326;2022-11-20T03:17:22;5.90;99.90
28947;DHT22;16052;50.930;5.326;2022-11-20T03:19:48;5.80;99.90
28947;DHT22;16052;50.930;5.326;2022-11-20T03:22:14;6.10;99.90
28947;DHT22;16052;50.930;5.326;2022-11-20T03:24:39;6.30;99.90
28947;DHT22;16052;50.930;5.326;2022-11-20T03:27:05;6.40;99.90
28947;DHT22;16052;50.930;5.326;2022-11-20T03:29:30;6.50;99.90
28947;DHT22;16052;50.930;5.326;2022-11-20T03:31:57;6.30;99.90
28947;DHT22;16052;50.930;5.326;2022-11-20T03:34:23;6.30;99.90
28947;DHT22;16052;50.930;5.326;2022-11-20T03:36:49;6.10;99.90
28947;DHT22;16052;50.930;5.326;2022-11-20T03:39:16;6.00;99.90
28947;DHT22;16052;50.930;5.326;2022-11-20T03:41:42;6.00;99.90
28947;DHT22;16052;50.930;5.326;2022-11-20T03:44:10;6.30;99.90
28947;DHT22;16052;50.930;5.326;2022-11-20T03:46:37;6.20;99.90
28947;DHT22;16052;50.930;5.326;2022-11-20T03:49:03;6.10;99.90
28947;DHT22;16052;50.930;5.326;2022-11-20T03:51:34;6.00;99.90
28947;DHT22;16052;50.930;5.326;2022-11-20T03:54:04;6.00;99.90
28947;DHT22;16052;50.930;5.326;2022-11-20T03:56:32;5.90;99.90
28947;DHT22;16052;50.930;5.326;2022-11-20T03:58:58;6.00;99.90
28947;DHT22;16052;50.930;5.326;2022-11-20T04:01:33;5.90;99.90
28947;DHT22;16052;50.930;5.326;2022-11-20T04:03:59;5.80;99.90
28947;DHT22;16052;50.930;5.326;2022-11-20T04:06:28;6.00;99.90
28947;DHT22;16052;50.930;5.326;2022-11-20T04:08:55;6.10;99.90
28947;DHT22;16052;50.930;5.326;2022-11-20T04:11:22;6.00;99.90
28947;DHT22;16052;50.930;5.326;2022-11-20T04:13:56;6.00;99.90
28947;DHT22;16052;50.930;5.326;2022-11-20T04:16:23;5.90;99.90
28947;DHT22;16052;50.930;5.326;2022-11-20T04:18:53;5.70;99.90
28947;DHT22;16052;50.930;5.326;2022-11-20T04:21:19;5.50;99.90
28947;DHT22;16052;50.930;5.326;2022-11-20T04:23:45;5.50;99.90
28947;DHT22;16052;50.930;5.326;2022-11-20T04:26:12;5.40;99.90
28947;DHT22;16052;50.930;5.326;2022-11-20T04:28:38;5.30;99.90
28947;DHT22;16052;50.930;5.326;2022-11-20T04:31:07;5.00;99.90
28947;DHT22;16052;50.930;5.326;2022-11-20T04:33:34;4.90;99.90
28947;DHT22;16052;50.930;5.326;2022-11-20T04:36:02;5.00;99.90
28947;DHT22;16052;50.930;5.326;2022-11-20T04:38:29;5.10;99.90
28947;DHT22;16052;50.930;5.326;2022-11-20T04:41:02;5.20;99.90
28947;DHT22;16052;50.930;5.326;2022-11-20T04:43:29;5.40;99.90
28947;DHT22;16052;50.930;5.326;2022-11-20T04:45:56;5.40;99.90
28947;DHT22;16052;50.930;5.326;2022-11-20T04:48:22;5.30;99.90
28947;DHT22;16052;50.930;5.326;2022-11-20T04:50:48;5.30;99.90
28947;DHT22;16052;50.930;5.326;2022-11-20T04:53:14;5.30;99.90
28947;DHT22;16052;50.930;5.326;2022-11-20T04:55:39;5.40;99.90
28947;DHT22;16052;50.930;5.326;2022-11-20T04:58:05;5.70;99.90
28947;DHT22;16052;50.930;5.326;2022-11-20T05:00:31;5.60;99.90
28947;DHT22;16052;50.930;5.326;2022-11-20T05:02:57;5.60;99.90
28947;DHT22;16052;50.930;5.326;2022-11-20T05:05:23;5.80;99.90
28947;DHT22;16052;50.930;5.326;2022-11-20T05:07:49;5.80;99.90
28947;DHT22;16052;50.930;5.326;2022-11-20T05:10:15;5.70;99.90
28947;DHT22;16052;50.930;5.326;2022-11-20T05:12:41;5.60;99.90
28947;DHT22;16052;50.930;5.326;2022-11-20T05:15:07;5.60;99.90
28947;DHT22;16052;50.930;5.326;2022-11-20T05:17:33;5.80;99.90
28947;DHT22;16052;50.930;5.326;2022-11-20T05:19:59;5.90;99.90
28947;DHT22;16052;50.930;5.326;2022-11-20T05:22:25;5.90;99.90
28947;DHT22;16052;50.930;5.326;2022-11-20T05:24:51;5.90;99.90
28947;DHT22;16052;50.930;5.326;2022-11-20T05:27:18;5.80;99.90
28947;DHT22;16052;50.930;5.326;2022-11-20T05:29:44;5.80;99.90
28947;DHT22;16052;50.930;5.326;2022-11-20T05:32:10;5.80;99.90
28947;DHT22;16052;50.930;5.326;2022-11-20T05:34:36;5.70;99.90
28947;DHT22;16052;50.930;5.326;2022-11-20T05:37:02;5.60;99.90
28947;DHT22;16052;50.930;5.326;2022-11-20T05:39:28;5.60;99.90
28947;DHT22;16052;50.930;5.326;2022-11-20T05:41:53;5.70;99.90
28947;DHT22;16052;50.930;5.326;2022-11-20T05:44:38;5.70;99.90
28947;DHT22;16052;50.930;5.326;2022-11-20T05:47:03;5.60;99.90
28947;DHT22;16052;50.930;5.326;2022-11-20T05:49:29;5.60;99.90
28947;DHT22;16052;50.930;5.326;2022-11-20T05:51:55;5.50;99.90
28947;DHT22;16052;50.930;5.326;2022-11-20T05:54:20;5.50;99.90
28947;DHT22;16052;50.930;5.326;2022-11-20T05:56:46;5.50;99.90
28947;DHT22;16052;50.930;5.326;2022-11-20T05:59:12;5.60;99.90
28947;DHT22;16052;50.930;5.326;2022-11-20T06:01:38;5.50;99.90
28947;DHT22;16052;50.930;5.326;2022-11-20T06:04:04;5.40;99.90
28947;DHT22;16052;50.930;5.326;2022-11-20T06:06:29;5.40;99.90
28947;DHT22;16052;50.930;5.326;2022-11-20T06:08:55;5.40;99.90
28947;DHT22;16052;50.930;5.326;2022-11-20T06:11:21;5.40;99.90
28947;DHT22;16052;50.930;5.326;2022-11-20T06:13:48;5.50;99.90
28947;DHT22;16052;50.930;5.326;2022-11-20T06:16:15;5.50;99.90
28947;DHT22;16052;50.930;5.326;2022-11-20T06:18:41;5.60;99.90
28947;DHT22;16052;50.930;5.326;2022-11-20T06:21:10;5.70;99.90
28947;DHT22;16052;50.930;5.326;2022-11-20T06:23:37;5.80;99.90
28947;DHT22;16052;50.930;5.326;2022-11-20T06:26:05;5.90;99.90
28947;DHT22;16052;50.930;5.326;2022-11-20T06:28:32;5.90;99.90
28947;DHT22;16052;50.930;5.326;2022-11-20T06:30:58;5.90;99.90
28947;DHT22;16052;50.930;5.326;2022-11-20T06:33:24;6.00;99.90
28947;DHT22;16052;50.930;5.326;2022-11-20T06:35:51;5.90;99.90
28947;DHT22;16052;50.930;5.326;2022-11-20T06:38:16;5.80;99.90
28947;DHT22;16052;50.930;5.326;2022-11-20T06:40:42;5.80;99.90
28947;DHT22;16052;50.930;5.326;2022-11-20T06:43:09;5.80;99.90
28947;DHT22;16052;50.930;5.326;2022-11-20T06:45:35;5.70;99.90
28947;DHT22;16052;50.930;5.326;2022-11-20T06:48:01;5.80;99.90
28947;DHT22;16052;50.930;5.326;2022-11-20T06:50:27;5.80;99.90
28947;DHT22;16052;50.930;5.326;2022-11-20T06:52:52;5.70;99.90
28947;DHT22;16052;50.930;5.326;2022-11-20T06:55:18;5.40;99.90
28947;DHT22;16052;50.930;5.326;2022-11-20T06:57:43;5.40;99.90
28947;DHT22;16052;50.930;5.326;2022-11-20T07:00:10;5.50;99.90
28947;DHT22;16052;50.930;5.326;2022-11-20T07:02:36;5.50;99.90
28947;DHT22;16052;50.930;5.326;2022-11-20T07:05:01;5.80;99.90
28947;DHT22;16052;50.930;5.326;2022-11-20T07:07:27;5.90;99.90
28947;DHT22;16052;50.930;5.326;2022-11-20T07:09:53;6.10;99.90
28947;DHT22;16052;50.930;5.326;2022-11-20T07:12:18;6.20;99.90
28947;DHT22;16052;50.930;5.326;2022-11-20T07:14:44;6.00;99.90
28947;DHT22;16052;50.930;5.326;2022-11-20T07:17:10;6.20;99.90
28947;DHT22;16052;50.930;5.326;2022-11-20T07:19:35;6.30;99.90
28947;DHT22;16052;50.930;5.326;2022-11-20T07:22:01;6.20;99.90
28947;DHT22;16052;50.930;5.326;2022-11-20T07:24:26;5.90;99.90
28947;DHT22;16052;50.930;5.326;2022-11-20T07:26:52;5.80;99.90
28947;DHT22;16052;50.930;5.326;2022-11-20T07:29:18;5.50;99.90
28947;DHT22;16052;50.930;5.326;2022-11-20T07:31:43;5.30;99.90
28947;DHT22;16052;50.930;5.326;2022-11-20T07:34:09;5.70;99.90
28947;DHT22;16052;50.930;5.326;2022-11-20T07:36:35;5.90;99.90
28947;DHT22;16052;50.930;5.326;2022-11-20T07:39:00;5.70;99.90
28947;DHT22;16052;50.930;5.326;2022-11-20T07:41:26;5.50;99.90
28947;DHT22;16052;50.930;5.326;2022-11-20T07:43:52;5.60;99.90
28947;DHT22;16052;50.930;5.326;2022-11-20T07:46:18;5.50;99.90
28947;DHT22;16052;50.930;5.326;2022-11-20T07:48:44;5.40;99.90
28947;DHT22;16052;50.930;5.326;2022-11-20T07:51:09;5.40;99.90
28947;DHT22;16052;50.930;5.326;2022-11-20T07:53:35;5.30;99.90
28947;DHT22;16052;50.930;5.326;2022-11-20T07:56:01;5.40;99.90
28947;DHT22;16052;50.930;5.326;2022-11-20T07:58:29;5.60;99.90
28947;DHT22;16052;50.930;5.326;2022-11-20T08:00:55;5.80;99.90
28947;DHT22;16052;50.930;5.326;2022-11-20T08:03:21;5.40;99.90
28947;DHT22;16052;50.930;5.326;2022-11-20T08:05:46;5.40;99.90
28947;DHT22;16052;50.930;5.326;2022-11-20T08:08:12;5.40;99.90
28947;DHT22;16052;50.930;5.326;2022-11-20T08:10:37;5.50;99.90
28947;DHT22;16052;50.930;5.326;2022-11-20T08:13:03;5.40;99.90
28947;DHT22;16052;50.930;5.326;2022-11-20T08:15:49;5.30;99.90
28947;DHT22;16052;50.930;5.326;2022-11-20T08:18:17;5.20;99.90
28947;DHT22;16052;50.930;5.326;2022-11-20T08:20:43;5.20;99.90
28947;DHT22;16052;50.930;5.326;2022-11-20T08:23:10;4.90;99.90
28947;DHT22;16052;50.930;5.326;2022-11-20T08:25:37;5.00;99.90
28947;DHT22;16052;50.930;5.326;2022-11-20T08:28:05;5.20;99.90
28947;DHT22;16052;50.930;5.326;2022-11-20T08:30:31;5.20;99.90
28947;DHT22;16052;50.930;5.326;2022-11-20T08:33:05;5.30;99.90
28947;DHT22;16052;50.930;5.326;2022-11-20T08:35:38;5.30;99.90
28947;DHT22;16052;50.930;5.326;2022-11-20T08:38:05;5.40;99.90
28947;DHT22;16052;50.930;5.326;2022-11-20T08:40:31;5.80;99.90
28947;DHT22;16052;50.930;5.326;2022-11-20T08:42:57;5.60;99.90
28947;DHT22;16052;50.930;5.326;2022-11-20T08:45:23;5.70;99.90
28947;DHT22;16052;50.930;5.326;2022-11-20T08:47:49;5.70;99.90
28947;DHT22;16052;50.930;5.326;2022-11-20T08:50:15;5.60;99.90
28947;DHT22;16052;50.930;5.326;2022-11-20T08:52:41;5.70;99.90
28947;DHT22;16052;50.930;5.326;2022-11-20T08:55:09;5.90;99.90
28947;DHT22;16052;50.930;5.326;2022-11-20T08:57:37;5.60;99.90
28947;DHT22;16052;50.930;5.326;2022-11-20T09:00:05;5.70;99.90
28947;DHT22;16052;50.930;5.326;2022-11-20T09:02:32;5.70;99.90
28947;DHT22;16052;50.930;5.326;2022-11-20T09:04:58;5.60;99.90
28947;DHT22;16052;50.930;5.326;2022-11-20T09:07:24;5.60;99.90
28947;DHT22;16052;50.930;5.326;2022-11-20T09:09:49;5.70;99.90
28947;DHT22;16052;50.930;5.326;2022-11-20T09:12:15;5.70;99.90
28947;DHT22;16052;50.930;5.326;2022-11-20T09:14:41;5.90;99.90
28947;DHT22;16052;50.930;5.326;2022-11-20T09:17:09;5.90;99.90
28947;DHT22;16052;50.930;5.326;2022-11-20T09:19:34;5.80;99.90
28947;DHT22;16052;50.930;5.326;2022-11-20T09:22:00;5.60;99.90
28947;DHT22;16052;50.930;5.326;2022-11-20T09:24:26;5.60;99.90
28947;DHT22;16052;50.930;5.326;2022-11-20T09:26:53;5.80;99.90
28947;DHT22;16052;50.930;5.326;2022-11-20T09:29:18;6.00;99.90
28947;DHT22;16052;50.930;5.326;2022-11-20T09:31:44;6.20;99.90
28947;DHT22;16052;50.930;5.326;2022-11-20T09:34:09;6.20;99.90
28947;DHT22;16052;50.930;5.326;2022-11-20T09:36:35;6.40;99.90
28947;DHT22;16052;50.930;5.326;2022-11-20T09:39:01;6.30;99.90
28947;DHT22;16052;50.930;5.326;2022-11-20T09:42:23;6.30;99.90
28947;DHT22;16052;50.930;5.326;2022-11-20T09:47:13;6.00;99.90
28947;DHT22;16052;50.930;5.326;2022-11-20T09:52:44;6.10;99.90
28947;DHT22;16052;50.930;5.326;2022-11-20T09:55:14;6.20;99.90
28947;DHT22;16052;50.930;5.326;2022-11-20T09:57:43;6.50;99.90
28947;DHT22;16052;50.930;5.326;2022-11-20T10:00:10;6.40;99.90
28947;DHT22;16052;50.930;5.326;2022-11-20T10:05:27;6.50;99.90
28947;DHT22;16052;50.930;5.326;2022-11-20T10:10:34;6.50;99.90
28947;DHT22;16052;50.930;5.326;2022-11-20T10:16:17;6.60;99.90
28947;DHT22;16052;50.930;5.326;2022-11-20T10:27:14;6.80;99.90
28947;DHT22;16052;50.930;5.326;2022-11-20T10:29:45;6.60;99.90
28947;DHT22;16052;50.930;5.326;2022-11-20T10:32:20;6.60;99.90
28947;DHT22;16052;50.930;5.326;2022-11-20T10:37:25;6.70;99.90
28947;DHT22;16052;50.930;5.326;2022-11-20T10:42:36;6.80;99.90
28947;DHT22;16052;50.930;5.326;2022-11-20T10:45:19;6.90;99.90
28947;DHT22;16052;50.930;5.326;2022-11-20T10:47:47;6.90;99.90
28947;DHT22;16052;50.930;5.326;2022-11-20T10:50:18;6.90;99.90
28947;DHT22;16052;50.930;5.326;2022-11-20T10:55:30;7.00;99.90
28947;DHT22;16052;50.930;5.326;2022-11-20T10:58:13;7.10;99.90
28947;DHT22;16052;50.930;5.326;2022-11-20T11:00:39;7.00;99.90
28947;DHT22;16052;50.930;5.326;2022-11-20T11:03:26;7.00;99.90
28947;DHT22;16052;50.930;5.326;2022-11-20T11:06:17;7.10;99.90
28947;DHT22;16052;50.930;5.326;2022-11-20T11:08:45;7.30;99.90
28947;DHT22;16052;50.930;5.326;2022-11-20T11:11:24;7.40;99.90
28947;DHT22;16052;50.930;5.326;2022-11-20T11:13:51;7.50;99.90
28947;DHT22;16052;50.930;5.326;2022-11-20T11:16:24;7.50;99.90
28947;DHT22;16052;50.930;5.326;2022-11-20T11:18:50;7.40;99.90
28947;DHT22;16052;50.930;5.326;2022-11-20T11:21:24;7.50;99.90
28947;DHT22;16052;50.930;5.326;2022-11-20T11:24:04;7.50;99.90
28947;DHT22;16052;50.930;5.326;2022-11-20T11:26:30;7.70;99.90
28947;DHT22;16052;50.930;5.326;2022-11-20T11:29:00;7.80;99.90
28947;DHT22;16052;50.930;5.326;2022-11-20T11:31:31;7.90;99.90
28947;DHT22;16052;50.930;5.326;2022-11-20T11:34:06;7.90;99.90
28947;DHT22;16052;50.930;5.326;2022-11-20T11:36:34;7.90;99.90
28947;DHT22;16052;50.930;5.326;2022-11-20T11:39:01;7.90;99.90
28947;DHT22;16052;50.930;5.326;2022-11-20T11:41:33;8.00;99.90
28947;DHT22;16052;50.930;5.326;2022-11-20T11:47:04;8.00;99.90
28947;DHT22;16052;50.930;5.326;2022-11-20T11:49:32;7.90;99.90
28947;DHT22;16052;50.930;5.326;2022-11-20T11:52:20;8.00;99.90
28947;DHT22;16052;50.930;5.326;2022-11-20T11:54:57;8.00;99.90
28947;DHT22;16052;50.930;5.326;2022-11-20T12:00:09;8.20;99.90
28947;DHT22;16052;50.930;5.326;2022-11-20T12:10:58;8.50;99.90
28947;DHT22;16052;50.930;5.326;2022-11-20T12:13:35;8.50;99.90
28947;DHT22;16052;50.930;5.326;2022-11-20T12:16:03;8.50;99.90
28947;DHT22;16052;50.930;5.326;2022-11-20T12:18:30;8.60;99.90
28947;DHT22;16052;50.930;5.326;2022-11-20T12:21:25;8.70;99.90
28947;DHT22;16052;50.930;5.326;2022-11-20T12:24:05;8.60;99.90
28947;DHT22;16052;50.930;5.326;2022-11-20T12:26:55;8.70;99.90
28947;DHT22;16052;50.930;5.326;2022-11-20T12:29:48;9.10;99.90
28947;DHT22;16052;50.930;5.326;2022-11-20T12:32:33;9.00;99.90
28947;DHT22;16052;50.930;5.326;2022-11-20T12:43:21;9.10;99.90
28947;DHT22;16052;50.930;5.326;2022-11-20T13:00:30;9.30;99.90
28947;DHT22;16052;50.930;5.326;2022-11-20T13:03:31;9.20;99.90
28947;DHT22;16052;50.930;5.326;2022-11-20T13:06:11;9.30;99.90
28947;DHT22;16052;50.930;5.326;2022-11-20T13:08:40;9.20;99.90
28947;DHT22;16052;50.930;5.326;2022-11-20T13:11:58;9.20;99.90
28947;DHT22;16052;50.930;5.326;2022-11-20T13:14:27;9.30;99.90
28947;DHT22;16052;50.930;5.326;2022-11-20T13:16:58;9.30;99.90
28947;DHT22;16052;50.930;5.326;2022-11-20T13:19:25;9.30;99.90
28947;DHT22;16052;50.930;5.326;2022-11-20T13:21:52;9.30;99.90
28947;DHT22;16052;50.930;5.326;2022-11-20T13:29:31;8.90;99.90
28947;DHT22;16052;50.930;5.326;2022-11-20T13:32:12;8.90;99.90
28947;DHT22;16052;50.930;5.326;2022-11-20T13:34:50;8.90;99.90
28947;DHT22;16052;50.930;5.326;2022-11-20T13:39:50;9.00;99.90
28947;DHT22;16052;50.930;5.326;2022-11-20T13:44:48;8.70;99.90
28947;DHT22;16052;50.930;5.326;2022-11-20T13:47:29;8.60;99.90
28947;DHT22;16052;50.930;5.326;2022-11-20T13:49:57;8.60;99.90
28947;DHT22;16052;50.930;5.326;2022-11-20T13:52:47;8.60;99.90
28947;DHT22;16052;50.930;5.326;2022-11-20T14:00:51;8.40;99.90
28947;DHT22;16052;50.930;5.326;2022-11-20T14:03:24;8.50;99.90
28947;DHT22;16052;50.930;5.326;2022-11-20T14:06:03;8.50;99.90
28947;DHT22;16052;50.930;5.326;2022-11-20T14:08:49;8.50;99.90
28947;DHT22;16052;50.930;5.326;2022-11-20T14:11:21;8.50;99.90
28947;DHT22;16052;50.930;5.326;2022-11-20T14:14:03;8.40;99.90
28947;DHT22;16052;50.930;5.326;2022-11-20T14:16:32;8.40;99.90
28947;DHT22;16052;50.930;5.326;2022-11-20T14:22:07;8.50;99.90
28947;DHT22;16052;50.930;5.326;2022-11-20T14:24:33;8.40;99.90
28947;DHT22;16052;50.930;5.326;2022-11-20T14:26:59;8.40;99.90
28947;DHT22;16052;50.930;5.326;2022-11-20T14:29:36;8.20;99.90
28947;DHT22;16052;50.930;5.326;2022-11-20T14:32:03;8.20;99.90
28947;DHT22;16052;50.930;5.326;2022-11-20T14:34:32;8.10;99.90
28947;DHT22;16052;50.930;5.326;2022-11-20T14:37:00;8.00;99.90
28947;DHT22;16052;50.930;5.326;2022-11-20T14:39:34;8.10;99.90
28947;DHT22;16052;50.930;5.326;2022-11-20T14:42:01;8.10;99.90
28947;DHT22;16052;50.930;5.326;2022-11-20T14:44:30;8.00;99.90
28947;DHT22;16052;50.930;5.326;2022-11-20T14:46:57;8.00;99.90
28947;DHT22;16052;50.930;5.326;2022-11-20T14:49:25;7.90;99.90
28947;DHT22;16052;50.930;5.326;2022-11-20T14:52:01;7.80;99.90
28947;DHT22;16052;50.930;5.326;2022-11-20T14:54:27;7.80;99.90
28947;DHT22;16052;50.930;5.326;2022-11-20T14:56:58;7.80;99.90
28947;DHT22;16052;50.930;5.326;2022-11-20T14:59:30;7.80;99.90
28947;DHT22;16052;50.930;5.326;2022-11-20T15:02:10;7.80;99.90
28947;DHT22;16052;50.930;5.326;2022-11-20T15:04:48;7.80;99.90
28947;DHT22;16052;50.930;5.326;2022-11-20T15:07:26;7.80;99.90
28947;DHT22;16052;50.930;5.326;2022-11-20T15:10:05;7.80;99.90
28947;DHT22;16052;50.930;5.326;2022-11-20T15:12:32;7.80;99.90
28947;DHT22;16052;50.930;5.326;2022-11-20T15:14:58;7.80;99.90
28947;DHT22;16052;50.930;5.326;2022-11-20T15:17:24;7.90;99.90
28947;DHT22;16052;50.930;5.326;2022-11-20T15:19:50;8.00;99.90
28947;DHT22;16052;50.930;5.326;2022-11-20T15:22:16;7.80;99.90
28947;DHT22;16052;50.930;5.326;2022-11-20T15:24:42;7.90;99.90
28947;DHT22;16052;50.930;5.326;2022-11-20T15:27:10;8.00;99.90
28947;DHT22;16052;50.930;5.326;2022-11-20T15:29:36;7.90;99.90
28947;DHT22;16052;50.930;5.326;2022-11-20T15:32:02;7.90;99.90
28947;DHT22;16052;50.930;5.326;2022-11-20T15:34:28;7.90;99.90
28947;DHT22;16052;50.930;5.326;2022-11-20T15:36:53;7.90;99.90
28947;DHT22;16052;50.930;5.326;2022-11-20T15:39:20;8.00;99.90
28947;DHT22;16052;50.930;5.326;2022-11-20T15:41:46;8.00;99.90
28947;DHT22;16052;50.930;5.326;2022-11-20T15:44:12;8.10;99.90
28947;DHT22;16052;50.930;5.326;2022-11-20T15:46:40;8.20;99.90
28947;DHT22;16052;50.930;5.326;2022-11-20T15:49:13;8.10;99.90
28947;DHT22;16052;50.930;5.326;2022-11-20T15:51:42;8.10;99.90
28947;DHT22;16052;50.930;5.326;2022-11-20T15:54:11;8.00;99.90
28947;DHT22;16052;50.930;5.326;2022-11-20T15:56:37;8.00;99.90
28947;DHT22;16052;50.930;5.326;2022-11-20T15:59:03;8.00;99.90
28947;DHT22;16052;50.930;5.326;2022-11-20T16:01:28;8.00;99.90
28947;DHT22;16052;50.930;5.326;2022-11-20T16:03:54;8.00;99.90
28947;DHT22;16052;50.930;5.326;2022-11-20T16:06:19;8.00;99.90
28947;DHT22;16052;50.930;5.326;2022-11-20T16:08:45;8.00;99.90
28947;DHT22;16052;50.930;5.326;2022-11-20T16:11:15;8.10;99.90
28947;DHT22;16052;50.930;5.326;2022-11-20T16:13:42;8.10;99.90
28947;DHT22;16052;50.930;5.326;2022-11-20T16:16:33;8.20;99.90
28947;DHT22;16052;50.930;5.326;2022-11-20T16:18:58;8.20;99.90
28947;DHT22;16052;50.930;5.326;2022-11-20T16:21:25;8.20;99.90
28947;DHT22;16052;50.930;5.326;2022-11-20T16:24:00;8.20;99.90
28947;DHT22;16052;50.930;5.326;2022-11-20T16:26:26;8.30;99.90
28947;DHT22;16052;50.930;5.326;2022-11-20T16:28:52;8.40;99.90
28947;DHT22;16052;50.930;5.326;2022-11-20T16:31:19;8.40;99.90
28947;DHT22;16052;50.930;5.326;2022-11-20T16:34:00;8.40;99.90
28947;DHT22;16052;50.930;5.326;2022-11-20T16:36:27;8.30;99.90
28947;DHT22;16052;50.930;5.326;2022-11-20T16:38:58;8.40;99.90
28947;DHT22;16052;50.930;5.326;2022-11-20T16:41:26;8.50;99.90
28947;DHT22;16052;50.930;5.326;2022-11-20T16:43:56;8.60;99.90
28947;DHT22;16052;50.930;5.326;2022-11-20T16:46:24;8.60;99.90
28947;DHT22;16052;50.930;5.326;2022-11-20T16:48:58;8.60;99.90
28947;DHT22;16052;50.930;5.326;2022-11-20T16:51:25;8.60;99.90
28947;DHT22;16052;50.930;5.326;2022-11-20T16:53:51;8.60;99.90
28947;DHT22;16052;50.930;5.326;2022-11-20T16:56:20;8.70;99.90
28947;DHT22;16052;50.930;5.326;2022-11-20T16:58:47;8.70;99.90
28947;DHT22;16052;50.930;5.326;2022-11-20T17:01:16;8.70;99.90
28947;DHT22;16052;50.930;5.326;2022-11-20T17:03:43;8.80;99.90
28947;DHT22;16052;50.930;5.326;2022-11-20T17:06:17;8.80;99.90
28947;DHT22;16052;50.930;5.326;2022-11-20T17:08:44;8.80;99.90
28947;DHT22;16052;50.930;5.326;2022-11-20T17:11:12;8.80;99.90
28947;DHT22;16052;50.930;5.326;2022-11-20T17:13:38;8.80;99.90
28947;DHT22;16052;50.930;5.326;2022-11-20T17:16:06;9.00;99.90
28947;DHT22;16052;50.930;5.326;2022-11-20T17:18:33;8.90;99.90
28947;DHT22;16052;50.930;5.326;2022-11-20T17:20:59;8.90;99.90
28947;DHT22;16052;50.930;5.326;2022-11-20T17:23:32;8.90;99.90
28947;DHT22;16052;50.930;5.326;2022-11-20T17:26:05;8.90;99.90
28947;DHT22;16052;50.930;5.326;2022-11-20T17:28:32;8.80;99.90
28947;DHT22;16052;50.930;5.326;2022-11-20T17:31:07;8.80;99.90